createdAt,value
2023-05-06T00:01:41.265Z,100932.19
2023-05-06T00:04:08.084Z,100933.28
2023-05-06T00:06:34.952Z,100922.16
2023-05-06T00:09:01.752Z,100917.44
2023-05-06T00:11:28.562Z,100925.84
2023-05-06T00:13:55.386Z,100920.19
2023-05-06T00:16:22.206Z,100921.81
2023-05-06T00:18:49.025Z,100912.81
2023-05-06T00:21:15.905Z,100910.06
2023-05-06T00:23:42.704Z,100916.34
2023-05-06T00:26:09.462Z,100913.00
2023-05-06T00:28:36.372Z,100917.59
2023-05-06T00:31:03.178Z,100916.25
2023-05-06T00:33:29.994Z,100911.97
2023-05-06T00:35:56.811Z,100916.78
2023-05-06T00:38:23.564Z,100918.56
2023-05-06T00:40:50.796Z,100922.19
2023-05-06T00:43:17.619Z,100919.75
2023-05-06T00:45:44.411Z,100913.38
2023-05-06T00:48:11.235Z,100917.69
2023-05-06T00:50:38.052Z,100923.00
2023-05-06T00:53:04.795Z,100910.59
2023-05-06T00:55:31.592Z,100920.06
2023-05-06T00:57:58.432Z,100911.09
2023-05-06T01:00:25.529Z,100906.38
2023-05-06T01:02:52.424Z,100905.41
2023-05-06T01:05:20.885Z,100914.75
2023-05-06T01:07:47.730Z,100911.38
2023-05-06T01:10:18.701Z,100912.53
2023-05-06T01:12:45.545Z,100913.91
2023-05-06T01:15:12.415Z,100913.69
2023-05-06T01:17:39.244Z,100912.06
2023-05-06T01:20:06.261Z,100919.91
2023-05-06T01:22:33.317Z,100916.13
2023-05-06T01:25:00.192Z,100914.88
2023-05-06T01:27:27.007Z,100917.63
2023-05-06T01:29:53.799Z,100912.53
2023-05-06T01:32:21.675Z,100917.31
2023-05-06T01:34:48.501Z,100925.44
2023-05-06T01:37:15.349Z,100932.41
2023-05-06T01:39:42.120Z,100929.50
2023-05-06T01:42:08.887Z,100938.00
2023-05-06T01:44:36.018Z,100931.94
2023-05-06T01:47:02.838Z,100933.47
2023-05-06T01:49:29.613Z,100934.28
2023-05-06T01:51:56.421Z,100934.94
2023-05-06T01:54:23.243Z,100932.41
2023-05-06T01:56:50.017Z,100928.09
2023-05-06T01:59:16.783Z,100931.03
2023-05-06T02:01:43.687Z,100924.94
2023-05-06T02:04:10.518Z,100925.63
2023-05-06T02:06:37.310Z,100923.09
2023-05-06T02:09:04.128Z,100916.72
2023-05-06T02:11:30.923Z,100921.94
2023-05-06T02:13:58.212Z,100911.44
2023-05-06T02:16:25.009Z,100914.34
2023-05-06T02:18:52.219Z,100900.81
2023-05-06T02:21:19.011Z,100902.88
2023-05-06T02:23:45.782Z,100908.38
2023-05-06T02:26:12.574Z,100921.81
2023-05-06T02:28:39.325Z,100910.59
2023-05-06T02:31:06.169Z,100906.59
2023-05-06T02:33:33.048Z,100915.31
2023-05-06T02:35:59.774Z,100920.53
2023-05-06T02:38:26.677Z,100920.41
2023-05-06T02:40:53.459Z,100928.50
2023-05-06T02:43:20.216Z,100932.34
2023-05-06T02:45:46.971Z,100937.41
2023-05-06T02:48:13.813Z,100925.06
2023-05-06T02:50:41.051Z,100929.19
2023-05-06T02:53:09.247Z,100934.56
2023-05-06T02:55:36.293Z,100927.50
2023-05-06T02:58:03.086Z,100929.25
2023-05-06T03:00:29.880Z,100919.75
2023-05-06T03:02:56.689Z,100926.91
2023-05-06T03:05:23.455Z,100923.34
2023-05-06T03:07:50.216Z,100927.31
2023-05-06T03:10:17.045Z,100927.72
2023-05-06T03:12:43.878Z,100936.66
2023-05-06T03:15:11.068Z,100932.72
2023-05-06T03:17:38.244Z,100926.59
2023-05-06T03:20:05.438Z,100927.69
2023-05-06T03:22:32.196Z,100930.09
2023-05-06T03:24:58.973Z,100935.56
2023-05-06T03:27:25.726Z,100932.47
2023-05-06T03:29:52.537Z,100929.59
2023-05-06T03:32:19.326Z,100927.81
2023-05-06T03:34:46.066Z,100932.41
2023-05-06T03:37:12.825Z,100933.41
2023-05-06T03:39:39.601Z,100927.91
2023-05-06T03:42:08.610Z,100929.44
2023-05-06T03:44:36.250Z,100929.72
2023-05-06T03:47:03.140Z,100934.31
2023-05-06T03:49:29.918Z,100935.16
2023-05-06T03:51:56.867Z,100941.06
2023-05-06T03:54:23.627Z,100930.25
2023-05-06T03:56:50.453Z,100938.41
2023-05-06T03:59:17.303Z,100945.13
2023-05-06T04:01:44.110Z,100938.59
2023-05-06T04:04:10.932Z,100933.28
2023-05-06T04:06:37.706Z,100931.47
2023-05-06T04:09:06.379Z,100930.31
2023-05-06T04:11:33.189Z,100927.88
2023-05-06T04:13:59.973Z,100938.59
2023-05-06T04:16:26.810Z,100938.66
2023-05-06T04:18:53.610Z,100943.75
2023-05-06T04:21:20.354Z,100950.00
2023-05-06T04:23:47.548Z,100950.34
2023-05-06T04:26:14.332Z,100950.63
2023-05-06T04:28:41.103Z,100960.59
2023-05-06T04:31:08.930Z,100965.13
2023-05-06T04:33:35.779Z,100965.84
2023-05-06T04:36:03.344Z,100957.84
2023-05-06T04:38:31.929Z,100961.56
2023-05-06T04:40:59.350Z,100948.84
2023-05-06T04:43:27.465Z,100946.94
2023-05-06T04:45:55.184Z,100955.63
2023-05-06T04:48:22.331Z,100956.34
2023-05-06T04:50:49.141Z,100955.34
2023-05-06T04:53:15.950Z,100963.69
2023-05-06T04:55:42.709Z,100963.97
2023-05-06T04:58:09.469Z,100960.50
2023-05-06T05:00:36.242Z,100959.53
2023-05-06T05:03:03.106Z,100960.84
2023-05-06T05:05:30.337Z,100964.09
2023-05-06T05:07:57.234Z,100961.28
2023-05-06T05:10:24.009Z,100969.38
2023-05-06T05:12:50.851Z,100969.91
2023-05-06T05:15:17.717Z,100973.72
2023-05-06T05:17:44.537Z,100982.50
2023-05-06T05:20:11.296Z,100980.56
2023-05-06T05:22:38.395Z,100984.34
2023-05-06T05:25:06.338Z,100991.00
2023-05-06T05:27:34.522Z,100981.78
2023-05-06T05:30:01.628Z,100979.25
2023-05-06T05:32:28.511Z,100979.41
2023-05-06T05:34:55.419Z,100983.88
2023-05-06T05:37:22.282Z,100983.72
2023-05-06T05:39:49.062Z,100986.31
2023-05-06T05:42:15.801Z,100982.19
2023-05-06T05:44:42.553Z,100992.63
2023-05-06T05:47:09.510Z,100984.91
2023-05-06T05:49:36.274Z,100987.84
2023-05-06T05:52:03.499Z,100991.69
2023-05-06T05:54:30.265Z,100996.44
2023-05-06T05:56:57.877Z,100994.91
2023-05-06T05:59:24.638Z,100998.97
2023-05-06T06:01:51.388Z,101008.28
2023-05-06T06:04:18.285Z,100999.72
2023-05-06T06:06:45.096Z,101005.19
2023-05-06T06:09:11.974Z,101013.16
2023-05-06T06:11:38.732Z,101003.94
2023-05-06T06:14:05.486Z,101013.06
2023-05-06T06:16:32.343Z,101011.41
2023-05-06T06:18:59.155Z,101019.47
2023-05-06T06:21:25.930Z,101023.41
2023-05-06T06:23:52.675Z,101030.50
2023-05-06T06:26:19.490Z,101037.72
2023-05-06T06:28:46.250Z,101038.69
2023-05-06T06:31:13.069Z,101030.38
2023-05-06T06:33:39.840Z,101040.25
2023-05-06T06:36:06.726Z,101031.34
2023-05-06T06:38:33.547Z,101030.75
2023-05-06T06:41:00.403Z,101044.91
2023-05-06T06:43:27.162Z,101044.00
2023-05-06T06:45:53.934Z,101043.94
2023-05-06T06:48:20.745Z,101044.69
2023-05-06T06:50:47.563Z,101045.31
2023-05-06T06:53:14.328Z,101050.13
2023-05-06T06:55:41.069Z,101050.28
2023-05-06T06:58:07.816Z,101055.09
2023-05-06T07:00:34.595Z,101056.31
2023-05-06T07:03:01.377Z,101050.91
2023-05-06T07:05:28.275Z,101049.56
2023-05-06T07:07:55.569Z,101058.03
2023-05-06T07:10:22.458Z,101068.75
2023-05-06T07:12:49.242Z,101068.25
2023-05-06T07:15:16.049Z,101070.28
2023-05-06T07:17:42.866Z,101070.16
2023-05-06T07:20:09.716Z,101072.06
2023-05-06T07:22:36.961Z,101073.41
2023-05-06T07:25:03.730Z,101066.09
2023-05-06T07:27:30.765Z,101069.44
2023-05-06T07:29:57.600Z,101065.25
2023-05-06T07:32:24.374Z,101071.94
2023-05-06T07:34:51.169Z,101077.84
2023-05-06T07:37:17.917Z,101080.31
2023-05-06T07:39:44.891Z,101082.75
2023-05-06T07:42:13.072Z,101085.47
2023-05-06T07:44:40.005Z,101089.06
2023-05-06T07:47:06.901Z,101093.44
2023-05-06T07:49:34.961Z,101090.41
2023-05-06T07:52:03.413Z,101085.28
2023-05-06T07:54:31.510Z,101092.75
2023-05-06T07:56:58.331Z,101093.66
2023-05-06T07:59:25.160Z,101088.56
2023-05-06T08:01:52.052Z,101095.41
2023-05-06T08:04:18.887Z,101101.47
2023-05-06T08:06:45.702Z,101102.28
2023-05-06T08:09:14.859Z,101092.28
2023-05-06T08:11:46.663Z,101101.91
2023-05-06T08:14:13.408Z,101102.97
2023-05-06T08:16:40.226Z,101113.06
2023-05-06T08:19:07.093Z,101116.47
2023-05-06T08:21:34.106Z,101115.31
2023-05-06T08:24:00.890Z,101112.72
2023-05-06T08:26:27.670Z,101114.16
2023-05-06T08:28:56.065Z,101115.31
2023-05-06T08:31:22.811Z,101115.34
2023-05-06T08:33:49.624Z,101113.13
2023-05-06T08:36:16.365Z,101116.84
2023-05-06T08:38:48.942Z,101111.28
2023-05-06T08:41:15.713Z,101115.56
2023-05-06T08:43:42.533Z,101113.97
2023-05-06T08:46:09.479Z,101116.44
2023-05-06T08:48:37.348Z,101115.47
2023-05-06T08:51:04.164Z,101121.13
2023-05-06T08:53:30.921Z,101122.53
2023-05-06T08:55:57.693Z,101130.03
2023-05-06T08:58:24.492Z,101124.53
2023-05-06T09:00:51.386Z,101124.84
2023-05-06T09:03:18.407Z,101131.84
2023-05-06T09:05:45.254Z,101138.75
2023-05-06T09:08:12.103Z,101140.38
2023-05-06T09:10:38.937Z,101125.94
2023-05-06T09:13:05.956Z,101128.38
2023-05-06T09:15:32.730Z,101130.59
2023-05-06T09:17:59.599Z,101136.13
2023-05-06T09:20:26.761Z,101139.34
2023-05-06T09:22:53.837Z,101139.91
2023-05-06T09:25:20.645Z,101134.44
2023-05-06T09:27:47.392Z,101143.00
2023-05-06T09:30:14.333Z,101144.81
2023-05-06T09:32:41.847Z,101142.19
2023-05-06T09:35:08.933Z,101141.53
2023-05-06T09:37:36.199Z,101138.28
2023-05-06T09:40:03.115Z,101143.03
2023-05-06T09:42:29.916Z,101135.88
2023-05-06T09:44:58.110Z,101139.97
2023-05-06T09:47:26.020Z,101142.69
2023-05-06T09:49:52.786Z,101136.69
2023-05-06T09:52:20.661Z,101132.22
2023-05-06T09:54:47.520Z,101134.91
2023-05-06T09:57:15.148Z,101135.97
2023-05-06T09:59:41.884Z,101136.78
2023-05-06T10:02:08.704Z,101142.19
2023-05-06T10:04:35.858Z,101139.13
2023-05-06T10:07:02.960Z,101144.06
2023-05-06T10:09:29.719Z,101146.19
2023-05-06T10:11:56.507Z,101148.19
2023-05-06T10:14:23.274Z,101140.78
2023-05-06T10:16:50.066Z,101140.28
2023-05-06T10:19:16.815Z,101142.59
2023-05-06T10:21:43.555Z,101143.34
2023-05-06T10:24:10.342Z,101142.47
2023-05-06T10:26:37.364Z,101138.59
2023-05-06T10:29:04.758Z,101144.03
2023-05-06T10:31:31.565Z,101140.56
2023-05-06T10:33:58.342Z,101142.38
2023-05-06T10:36:25.203Z,101139.16
2023-05-06T10:38:54.598Z,101137.59
2023-05-06T10:41:22.111Z,101135.75
2023-05-06T10:43:56.600Z,101144.19
2023-05-06T10:46:23.568Z,101143.25
2023-05-06T10:48:50.316Z,101148.09
2023-05-06T10:51:17.124Z,101137.59
2023-05-06T10:53:43.855Z,101140.78
2023-05-06T10:56:10.621Z,101144.97
2023-05-06T10:58:37.386Z,101141.97
2023-05-06T11:01:04.179Z,101143.75
2023-05-06T11:03:30.994Z,101149.16
2023-05-06T11:05:57.810Z,101142.34
2023-05-06T11:08:24.682Z,101137.16
2023-05-06T11:10:51.745Z,101148.22
2023-05-06T11:13:18.971Z,101148.88
2023-05-06T11:15:46.300Z,101149.25
2023-05-06T11:18:13.051Z,101157.84
2023-05-06T11:20:39.807Z,101160.25
2023-05-06T11:23:06.621Z,101160.63
2023-05-06T11:25:33.376Z,101168.19
2023-05-06T11:28:00.430Z,101151.16
2023-05-06T11:30:27.173Z,101160.22
2023-05-06T11:32:53.960Z,101159.31
2023-05-06T11:35:22.791Z,101163.34
2023-05-06T11:37:49.576Z,101173.03
2023-05-06T11:40:16.449Z,101179.09
2023-05-06T11:42:43.241Z,101173.94
2023-05-06T11:45:10.041Z,101173.63
2023-05-06T11:47:36.776Z,101174.97
2023-05-06T11:50:07.285Z,101168.81
2023-05-06T11:52:34.068Z,101178.56
2023-05-06T11:55:00.851Z,101178.97
2023-05-06T11:57:27.613Z,101182.31
2023-05-06T11:59:55.809Z,101186.50
2023-05-06T12:02:22.650Z,101195.31
2023-05-06T12:04:53.079Z,101195.44
2023-05-06T12:07:19.921Z,101199.44
2023-05-06T12:09:46.973Z,101199.84
2023-05-06T12:12:13.764Z,101201.44
2023-05-06T12:14:40.611Z,101206.47
2023-05-06T12:17:07.376Z,101203.47
2023-05-06T12:19:34.143Z,101204.75
2023-05-06T12:22:01.050Z,101210.59
2023-05-06T12:24:28.953Z,101209.41
2023-05-06T12:26:56.050Z,101214.56
2023-05-06T12:29:22.794Z,101203.28
2023-05-06T12:31:49.642Z,101209.03
2023-05-06T12:34:17.725Z,101218.91
2023-05-06T12:36:44.509Z,101221.41
2023-05-06T12:39:14.117Z,101229.59
2023-05-06T12:41:41.043Z,101230.63
2023-05-06T12:44:07.812Z,101233.13
2023-05-06T12:46:34.621Z,101228.41
2023-05-06T12:49:01.692Z,101227.53
2023-05-06T12:51:28.742Z,101232.53
2023-05-06T12:53:55.557Z,101235.66
2023-05-06T12:56:22.423Z,101238.47
2023-05-06T12:58:49.170Z,101230.34
2023-05-06T13:01:16.007Z,101227.16
2023-05-06T13:03:42.803Z,101227.88
2023-05-06T13:06:09.615Z,101226.91
2023-05-06T13:08:36.411Z,101229.34
2023-05-06T13:11:03.729Z,101227.13
2023-05-06T13:13:30.820Z,101230.53
2023-05-06T13:15:57.594Z,101234.66
2023-05-06T13:18:24.381Z,101231.25
2023-05-06T13:20:51.535Z,101227.13
2023-05-06T13:23:19.308Z,101232.00
2023-05-06T13:26:00.730Z,101232.78
2023-05-06T13:28:30.056Z,101223.44
2023-05-06T13:30:56.929Z,101225.50
2023-05-06T13:33:23.722Z,101227.63
2023-05-06T13:35:50.525Z,101222.53
2023-05-06T13:38:17.306Z,101216.06
2023-05-06T13:40:44.051Z,101214.09
2023-05-06T13:43:11.305Z,101219.88
2023-05-06T13:45:38.217Z,101214.53
2023-05-06T13:48:05.053Z,101211.91
2023-05-06T13:50:31.852Z,101220.97
2023-05-06T13:52:58.623Z,101214.19
2023-05-06T13:55:25.545Z,101213.03
2023-05-06T13:57:52.315Z,101209.16
2023-05-06T14:00:19.074Z,101215.66
2023-05-06T14:02:45.961Z,101216.88
2023-05-06T14:05:13.072Z,101217.03
2023-05-06T14:07:40.607Z,101219.78
2023-05-06T14:10:07.436Z,101213.19
2023-05-06T14:12:34.267Z,101206.41
2023-05-06T14:15:01.253Z,101208.63
2023-05-06T14:17:28.026Z,101206.53
2023-05-06T14:19:54.804Z,101210.69
2023-05-06T14:22:21.581Z,101211.97
2023-05-06T14:24:48.459Z,101217.47
2023-05-06T14:27:15.358Z,101224.38
2023-05-06T14:29:43.098Z,101229.22
2023-05-06T14:32:09.872Z,101223.28
2023-05-06T14:34:36.828Z,101224.44
2023-05-06T14:37:03.637Z,101224.31
2023-05-06T14:39:30.492Z,101233.84
2023-05-06T14:41:57.811Z,101229.66
2023-05-06T14:44:24.596Z,101227.88
2023-05-06T14:46:51.450Z,101244.94
2023-05-06T14:49:18.273Z,101230.28
2023-05-06T14:51:45.459Z,101237.03
2023-05-06T14:54:12.204Z,101235.63
2023-05-06T14:56:38.959Z,101227.34
2023-05-06T14:59:05.759Z,101237.94
2023-05-06T15:01:33.520Z,101236.09
2023-05-06T15:04:00.377Z,101239.44
2023-05-06T15:06:27.227Z,101234.72
2023-05-06T15:08:53.991Z,101241.47
2023-05-06T15:11:20.823Z,101241.19
2023-05-06T15:13:47.580Z,101246.63
2023-05-06T15:16:14.345Z,101245.06
2023-05-06T15:18:41.944Z,101246.34
2023-05-06T15:21:08.786Z,101243.38
2023-05-06T15:23:35.517Z,101239.94
2023-05-06T15:26:02.293Z,101238.56
2023-05-06T15:28:29.062Z,101244.47
2023-05-06T15:30:55.840Z,101237.22
2023-05-06T15:33:22.647Z,101237.56
2023-05-06T15:35:49.412Z,101245.47
2023-05-06T15:38:16.157Z,101243.09
2023-05-06T15:40:42.892Z,101252.53
2023-05-06T15:43:09.831Z,101252.53
2023-05-06T15:45:37.470Z,101258.38
2023-05-06T15:48:04.230Z,101268.06
2023-05-06T15:50:33.851Z,101259.78
2023-05-06T15:53:01.849Z,101261.22
2023-05-06T15:55:28.833Z,101260.09
2023-05-06T15:57:56.284Z,101258.56
2023-05-06T16:00:23.933Z,101252.22
2023-05-06T16:02:50.787Z,101264.00
2023-05-06T16:05:17.687Z,101266.09
2023-05-06T16:07:44.463Z,101264.13
2023-05-06T16:10:11.556Z,101265.72
2023-05-06T16:12:38.803Z,101259.41
2023-05-06T16:15:05.561Z,101268.56
2023-05-06T16:17:37.271Z,101276.22
2023-05-06T16:20:04.360Z,101273.22
2023-05-06T16:22:31.159Z,101274.06
2023-05-06T16:24:58.063Z,101277.44
2023-05-06T16:27:27.356Z,101284.56
2023-05-06T16:29:54.111Z,101288.31
2023-05-06T16:32:20.856Z,101276.66
2023-05-06T16:34:47.622Z,101283.56
2023-05-06T16:37:14.473Z,101288.03
2023-05-06T16:39:41.226Z,101289.03
2023-05-06T16:42:07.997Z,101289.78
2023-05-06T16:44:35.037Z,101289.84
2023-05-06T16:47:01.976Z,101285.81
2023-05-06T16:49:28.808Z,101286.13
2023-05-06T16:51:57.104Z,101283.06
2023-05-06T16:54:23.991Z,101286.03
2023-05-06T16:56:52.672Z,101274.97
2023-05-06T16:59:21.969Z,101283.44
2023-05-06T17:01:49.081Z,101277.72
2023-05-06T17:04:16.174Z,101277.47
2023-05-06T17:06:42.898Z,101282.94
2023-05-06T17:09:10.049Z,101289.66
2023-05-06T17:11:36.993Z,101291.34
2023-05-06T17:14:03.800Z,101291.72
2023-05-06T17:16:30.568Z,101301.63
2023-05-06T17:18:57.394Z,101295.06
2023-05-06T17:21:24.815Z,101306.66
2023-05-06T17:23:54.409Z,101309.16
2023-05-06T17:26:21.342Z,101303.22
2023-05-06T17:28:48.215Z,101308.38
2023-05-06T17:31:15.893Z,101307.63
2023-05-06T17:33:42.715Z,101312.47
2023-05-06T17:36:09.444Z,101304.25
2023-05-06T17:38:36.309Z,101302.78
2023-05-06T17:41:03.074Z,101305.00
2023-05-06T17:43:29.829Z,101315.56
2023-05-06T17:45:56.882Z,101307.09
2023-05-06T17:48:23.715Z,101306.00
2023-05-06T17:50:50.562Z,101306.19
2023-05-06T17:53:17.286Z,101314.63
2023-05-06T17:55:44.110Z,101311.81
2023-05-06T17:58:11.685Z,101317.53
2023-05-06T18:00:38.472Z,101313.50
2023-05-06T18:03:05.833Z,101320.03
2023-05-06T18:05:32.674Z,101323.81
2023-05-06T18:07:59.496Z,101328.44
2023-05-06T18:10:26.310Z,101335.03
2023-05-06T18:12:53.541Z,101331.56
2023-05-06T18:15:20.293Z,101333.47
2023-05-06T18:17:47.196Z,101339.19
2023-05-06T18:20:13.966Z,101342.91
2023-05-06T18:22:42.649Z,101339.97
2023-05-06T18:25:09.565Z,101345.56
2023-05-06T18:27:37.003Z,101337.34
2023-05-06T18:30:04.514Z,101346.44
2023-05-06T18:32:31.628Z,101350.91
2023-05-06T18:34:58.488Z,101343.06
2023-05-06T18:37:25.236Z,101352.78
2023-05-06T18:39:52.122Z,101351.91
2023-05-06T18:42:18.960Z,101356.09
2023-05-06T18:44:45.752Z,101363.28
2023-05-06T18:47:12.533Z,101359.88
2023-05-06T18:49:39.348Z,101372.13
2023-05-06T18:52:06.150Z,101368.72
2023-05-06T18:54:32.956Z,101372.97
2023-05-06T18:57:00.869Z,101375.88
2023-05-06T18:59:27.666Z,101365.91
2023-05-06T19:01:54.419Z,101366.16
2023-05-06T19:04:21.203Z,101370.47
2023-05-06T19:06:47.956Z,101374.00
2023-05-06T19:09:14.737Z,101371.56
2023-05-06T19:11:41.544Z,101371.81
2023-05-06T19:14:08.642Z,101373.94
2023-05-06T19:16:35.651Z,101369.31
2023-05-06T19:19:03.296Z,101373.53
2023-05-06T19:21:30.060Z,101372.25
2023-05-06T19:23:59.652Z,101385.16
2023-05-06T19:26:26.836Z,101377.72
2023-05-06T19:28:53.995Z,101385.31
2023-05-06T19:31:20.876Z,101390.63
2023-05-06T19:33:47.662Z,101395.22
2023-05-06T19:36:16.167Z,101399.66
2023-05-06T19:38:42.919Z,101397.13
2023-05-06T19:41:10.816Z,101404.94
2023-05-06T19:43:37.555Z,101401.34
2023-05-06T19:46:06.192Z,101407.84
2023-05-06T19:48:34.947Z,101409.00
2023-05-06T19:51:03.503Z,101409.03
2023-05-06T19:53:30.260Z,101412.56
2023-05-06T19:55:59.059Z,101416.09
2023-05-06T19:58:26.021Z,101415.59
2023-05-06T20:00:52.866Z,101413.25
2023-05-06T20:03:19.787Z,101408.81
2023-05-06T20:05:46.717Z,101405.47
2023-05-06T20:08:13.621Z,101414.16
2023-05-06T20:10:40.463Z,101412.06
2023-05-06T20:13:07.446Z,101420.50
2023-05-06T20:15:35.643Z,101418.38
2023-05-06T20:18:02.457Z,101416.66
2023-05-06T20:20:34.074Z,101419.63
2023-05-06T20:23:03.871Z,101423.41
2023-05-06T20:25:30.991Z,101423.41
2023-05-06T20:27:57.760Z,101424.00
2023-05-06T20:30:24.558Z,101423.97
2023-05-06T20:32:52.047Z,101429.28
2023-05-06T20:35:19.118Z,101425.41
2023-05-06T20:37:45.981Z,101423.84
2023-05-06T20:40:12.774Z,101430.41
2023-05-06T20:42:39.564Z,101424.56
2023-05-06T20:45:06.321Z,101433.34
2023-05-06T20:47:33.160Z,101436.28
2023-05-06T20:49:59.960Z,101429.53
2023-05-06T20:52:26.890Z,101432.75
2023-05-06T20:54:53.743Z,101434.91
2023-05-06T20:57:20.496Z,101431.31
2023-05-06T20:59:49.443Z,101435.31
2023-05-06T21:02:16.251Z,101442.94
2023-05-06T21:04:43.078Z,101440.19
2023-05-06T21:07:09.878Z,101439.13
2023-05-06T21:09:37.951Z,101441.84
2023-05-06T21:12:04.873Z,101445.03
2023-05-06T21:14:31.798Z,101437.34
2023-05-06T21:16:58.556Z,101439.94
2023-05-06T21:19:25.308Z,101438.00
2023-05-06T21:21:52.053Z,101437.31
2023-05-06T21:24:18.854Z,101439.50
2023-05-06T21:26:45.670Z,101445.78
2023-05-06T21:29:12.475Z,101439.47
2023-05-06T21:31:39.306Z,101446.16
2023-05-06T21:34:07.849Z,101450.19
2023-05-06T21:36:34.795Z,101458.41
2023-05-06T21:39:01.728Z,101458.72
2023-05-06T21:41:28.483Z,101451.38
2023-05-06T21:43:55.251Z,101458.78
2023-05-06T21:46:22.121Z,101461.56
2023-05-06T21:48:48.940Z,101455.66
2023-05-06T21:51:15.798Z,101457.09
2023-05-06T21:53:42.732Z,101458.59
2023-05-06T21:56:09.516Z,101466.44
2023-05-06T21:58:36.310Z,101461.13
2023-05-06T22:01:03.813Z,101461.75
2023-05-06T22:03:30.676Z,101461.09
2023-05-06T22:05:57.582Z,101462.78
2023-05-06T22:08:25.027Z,101457.25
2023-05-06T22:10:51.826Z,101465.97
2023-05-06T22:13:19.186Z,101470.13
2023-05-06T22:15:46.098Z,101464.44
2023-05-06T22:18:13.785Z,101459.78
2023-05-06T22:20:41.517Z,101463.03
2023-05-06T22:23:08.386Z,101471.91
2023-05-06T22:25:35.258Z,101456.53
2023-05-06T22:28:02.041Z,101456.97
2023-05-06T22:30:28.827Z,101459.38
2023-05-06T22:32:55.719Z,101457.28
2023-05-06T22:35:22.615Z,101467.03
2023-05-06T22:37:49.390Z,101466.44
2023-05-06T22:40:16.129Z,101468.75
2023-05-06T22:42:42.968Z,101471.72
2023-05-06T22:45:09.786Z,101460.28
2023-05-06T22:47:36.691Z,101467.94
2023-05-06T22:50:03.563Z,101465.19
2023-05-06T22:52:30.301Z,101472.97
2023-05-06T22:54:57.092Z,101468.09
2023-05-06T22:57:25.168Z,101476.13
2023-05-06T22:59:51.985Z,101464.06
2023-05-06T23:02:18.753Z,101472.75
2023-05-06T23:04:45.507Z,101471.69
2023-05-06T23:07:13.700Z,101464.66
2023-05-06T23:09:40.576Z,101464.88
2023-05-06T23:12:07.621Z,101472.63
2023-05-06T23:14:34.363Z,101468.69
2023-05-06T23:17:01.198Z,101469.00
2023-05-06T23:19:28.025Z,101463.47
2023-05-06T23:21:54.791Z,101465.25
2023-05-06T23:24:21.681Z,101458.53
2023-05-06T23:26:48.474Z,101463.09
2023-05-06T23:29:15.269Z,101459.78
2023-05-06T23:31:42.105Z,101463.00
2023-05-06T23:34:08.878Z,101461.09
2023-05-06T23:36:35.798Z,101467.06
2023-05-06T23:39:02.697Z,101464.97
2023-05-06T23:41:29.474Z,101470.47
2023-05-06T23:43:56.255Z,101464.97
2023-05-06T23:46:23.065Z,101468.31
2023-05-06T23:48:49.915Z,101467.25
2023-05-06T23:51:16.691Z,101470.84
2023-05-06T23:53:43.442Z,101471.25
2023-05-06T23:56:10.261Z,101462.78
2023-05-06T23:58:37.129Z,101460.66
